createdAt,value
2022-08-21T00:00:20.976Z,44.54
2022-08-21T00:03:08.557Z,44.33
2022-08-21T00:05:39.621Z,44.42
2022-08-21T00:08:06.433Z,44.16
2022-08-21T00:10:33.631Z,44.27
2022-08-21T00:13:02.460Z,44.56
2022-08-21T00:15:31.073Z,44.53
2022-08-21T00:17:57.747Z,44.61
2022-08-21T00:20:24.758Z,44.32
2022-08-21T00:22:52.603Z,44.42
2022-08-21T00:25:20.974Z,44.50
2022-08-21T00:27:53.027Z,44.48
2022-08-21T00:30:23.345Z,44.40
2022-08-21T00:32:51.043Z,44.21
2022-08-21T00:35:21.547Z,44.52
2022-08-21T00:37:48.104Z,44.61
2022-08-21T00:40:19.857Z,44.50
2022-08-21T00:42:48.777Z,44.24
2022-08-21T00:45:20.542Z,44.29
2022-08-21T00:47:47.312Z,44.27
2022-08-21T00:50:19.642Z,44.42
2022-08-21T00:52:48.753Z,44.63
2022-08-21T00:55:17.631Z,45.00
2022-08-21T00:57:48.526Z,44.63
2022-08-21T01:00:19.898Z,44.50
2022-08-21T01:02:46.919Z,45.06
2022-08-21T01:05:13.824Z,44.81
2022-08-21T01:07:40.386Z,44.82
2022-08-21T01:10:07.648Z,44.73
2022-08-21T01:12:34.750Z,44.77
2022-08-21T01:15:03.068Z,44.63
2022-08-21T01:17:29.764Z,44.68
2022-08-21T01:20:00.624Z,44.61
2022-08-21T01:22:27.500Z,44.48
2022-08-21T01:24:54.132Z,44.54
2022-08-21T01:27:20.790Z,44.36
2022-08-21T01:29:56.708Z,44.73
2022-08-21T01:32:23.684Z,44.69
2022-08-21T01:34:51.718Z,44.85
2022-08-21T01:37:21.319Z,44.65
2022-08-21T01:39:48.839Z,44.43
2022-08-21T01:42:15.643Z,44.59
2022-08-21T01:44:42.874Z,44.63
2022-08-21T01:47:11.506Z,44.48
2022-08-21T01:49:39.544Z,44.38
2022-08-21T01:52:06.864Z,44.60
2022-08-21T01:54:37.914Z,44.66
2022-08-21T01:57:04.775Z,44.63
2022-08-21T01:59:31.461Z,44.53
2022-08-21T02:01:58.417Z,44.63
2022-08-21T02:04:25.178Z,44.77
2022-08-21T02:06:52.082Z,44.79
2022-08-21T02:09:18.979Z,44.43
2022-08-21T02:11:48.395Z,44.62
2022-08-21T02:14:15.756Z,44.60
2022-08-21T02:17:00.458Z,44.73
2022-08-21T02:19:38.354Z,44.68
2022-08-21T02:22:10.535Z,44.56
2022-08-21T02:24:53.684Z,44.79
2022-08-21T02:27:27.280Z,44.71
2022-08-21T02:29:56.889Z,44.51
2022-08-21T02:32:23.480Z,44.77
2022-08-21T02:34:50.801Z,44.31
2022-08-21T02:37:17.456Z,44.29
2022-08-21T02:39:44.055Z,44.66
2022-08-21T02:42:10.678Z,44.55
2022-08-21T02:44:37.248Z,44.60
2022-08-21T02:47:03.804Z,44.47
2022-08-21T02:49:30.389Z,44.77
2022-08-21T02:51:56.958Z,44.54
2022-08-21T02:54:24.634Z,44.58
2022-08-21T02:56:51.213Z,44.64
2022-08-21T02:59:17.775Z,44.60
2022-08-21T03:01:45.153Z,44.96
2022-08-21T03:04:11.783Z,44.96
2022-08-21T03:06:38.401Z,44.89
2022-08-21T03:09:05.095Z,44.38
2022-08-21T03:11:31.692Z,44.85
2022-08-21T03:13:58.247Z,44.58
2022-08-21T03:16:24.807Z,44.85
2022-08-21T03:18:51.380Z,44.66
2022-08-21T03:21:19.866Z,44.77
2022-08-21T03:23:47.577Z,44.73
2022-08-21T03:26:14.713Z,44.81
2022-08-21T03:28:42.745Z,44.84
2022-08-21T03:31:09.713Z,44.95
2022-08-21T03:33:36.368Z,44.79
2022-08-21T03:36:05.827Z,44.84
2022-08-21T03:38:34.187Z,44.74
2022-08-21T03:41:01.484Z,45.02
2022-08-21T03:43:31.159Z,45.18
2022-08-21T03:45:59.996Z,45.02
2022-08-21T03:48:26.607Z,45.11
2022-08-21T03:50:53.597Z,45.04
2022-08-21T03:53:20.180Z,45.46
2022-08-21T03:55:48.623Z,45.15
2022-08-21T03:58:20.247Z,44.91
2022-08-21T04:00:48.701Z,44.97
2022-08-21T04:03:15.367Z,45.20
2022-08-21T04:05:42.549Z,45.11
2022-08-21T04:08:09.483Z,45.48
2022-08-21T04:10:38.171Z,45.34
2022-08-21T04:13:05.510Z,45.02
2022-08-21T04:15:32.107Z,45.50
2022-08-21T04:17:58.749Z,45.23
2022-08-21T04:20:26.046Z,45.60
2022-08-21T04:22:53.331Z,45.16
2022-08-21T04:25:22.124Z,45.00
2022-08-21T04:27:48.885Z,45.53
2022-08-21T04:30:16.669Z,45.15
2022-08-21T04:32:45.291Z,45.23
2022-08-21T04:35:12.818Z,45.32
2022-08-21T04:37:42.192Z,45.53
2022-08-21T04:40:11.087Z,45.13
2022-08-21T04:42:45.511Z,45.55
2022-08-21T04:45:20.988Z,45.46
2022-08-21T04:47:52.727Z,45.04
2022-08-21T04:50:21.140Z,45.08
2022-08-21T04:52:48.272Z,45.24
2022-08-21T04:55:16.409Z,45.17
2022-08-21T04:57:49.031Z,45.48
2022-08-21T05:00:19.382Z,45.67
2022-08-21T05:02:48.434Z,45.13
2022-08-21T05:05:15.242Z,45.28
2022-08-21T05:07:43.180Z,45.49
2022-08-21T05:10:10.353Z,46.15
2022-08-21T05:12:40.480Z,45.80
2022-08-21T05:15:07.475Z,45.78
2022-08-21T05:17:39.899Z,46.01
2022-08-21T05:20:06.873Z,46.30
2022-08-21T05:22:33.471Z,46.15
2022-08-21T05:25:00.040Z,45.88
2022-08-21T05:27:26.633Z,46.27
2022-08-21T05:29:54.415Z,45.72
2022-08-21T05:32:21.744Z,45.77
2022-08-21T05:34:48.452Z,46.06
2022-08-21T05:37:15.059Z,46.19
2022-08-21T05:40:05.200Z,46.27
2022-08-21T05:42:28.919Z,46.08
2022-08-21T05:44:55.480Z,46.39
2022-08-21T05:47:22.047Z,46.39
2022-08-21T05:49:48.635Z,46.98
2022-08-21T05:52:20.303Z,46.92
2022-08-21T05:54:46.884Z,46.96
2022-08-21T05:57:13.480Z,46.65
2022-08-21T05:59:40.037Z,47.12
2022-08-21T06:02:09.087Z,47.10
2022-08-21T06:04:39.848Z,47.19
2022-08-21T06:07:07.202Z,46.92
2022-08-21T06:09:34.253Z,46.74
2022-08-21T06:12:09.496Z,46.72
2022-08-21T06:14:37.107Z,47.02
2022-08-21T06:17:09.075Z,47.16
2022-08-21T06:19:36.348Z,47.02
2022-08-21T06:22:03.533Z,47.25
2022-08-21T06:24:30.196Z,47.30
2022-08-21T06:26:56.924Z,47.54
2022-08-21T06:29:24.022Z,47.27
2022-08-21T06:31:52.535Z,46.89
2022-08-21T06:34:19.465Z,47.00
2022-08-21T06:36:46.085Z,46.58
2022-08-21T06:39:16.387Z,47.14
2022-08-21T06:41:48.750Z,46.62
2022-08-21T06:44:17.643Z,46.84
2022-08-21T06:46:44.222Z,47.06
2022-08-21T06:49:20.035Z,47.02
2022-08-21T06:51:48.260Z,46.76
2022-08-21T06:54:14.979Z,46.74
2022-08-21T06:56:41.636Z,46.50
2022-08-21T06:59:08.227Z,46.61
2022-08-21T07:01:34.814Z,46.72
2022-08-21T07:04:01.426Z,50.42
2022-08-21T07:06:28.065Z,50.22
2022-08-21T07:08:55.695Z,49.06
2022-08-21T07:11:26.191Z,47.78
2022-08-21T07:13:55.051Z,47.68
2022-08-21T07:16:21.981Z,47.40
2022-08-21T07:18:49.286Z,47.56
2022-08-21T07:21:16.180Z,47.61
2022-08-21T07:23:45.585Z,47.46
2022-08-21T07:26:13.429Z,47.37
2022-08-21T07:28:40.050Z,47.22
2022-08-21T07:31:06.820Z,47.53
2022-08-21T07:33:34.873Z,47.43
2022-08-21T07:36:01.967Z,47.32
2022-08-21T07:38:28.532Z,47.32
2022-08-21T07:40:56.974Z,47.02
2022-08-21T07:43:23.679Z,47.19
2022-08-21T07:45:54.340Z,47.43
2022-08-21T07:48:22.353Z,47.45
2022-08-21T07:50:49.320Z,47.38
2022-08-21T07:53:16.170Z,47.16
2022-08-21T07:55:42.867Z,46.97
2022-08-21T07:58:09.426Z,46.92
2022-08-21T08:00:36.408Z,46.94
2022-08-21T08:03:03.783Z,47.14
2022-08-21T08:05:32.105Z,47.36
2022-08-21T08:07:58.684Z,46.87
2022-08-21T08:10:25.780Z,46.86
2022-08-21T08:12:52.927Z,46.86
2022-08-21T08:15:27.424Z,47.14
2022-08-21T08:17:55.385Z,47.04
2022-08-21T08:20:23.677Z,47.19
2022-08-21T08:22:51.012Z,47.34
2022-08-21T08:25:18.939Z,46.83
2022-08-21T08:27:45.538Z,47.29
2022-08-21T08:30:14.718Z,47.21
2022-08-21T08:32:41.527Z,47.16
2022-08-21T08:35:09.059Z,47.60
2022-08-21T08:37:38.601Z,47.00
2022-08-21T08:40:34.317Z,47.31
2022-08-21T08:43:01.430Z,47.25
2022-08-21T08:45:31.340Z,47.11
2022-08-21T08:48:04.039Z,47.00
2022-08-21T08:50:44.626Z,47.02
2022-08-21T08:53:18.719Z,46.69
2022-08-21T08:55:46.235Z,46.92
2022-08-21T08:58:27.931Z,46.76
2022-08-21T09:00:55.309Z,46.53
2022-08-21T09:03:23.755Z,46.77
2022-08-21T09:06:34.908Z,46.87
2022-08-21T09:09:27.867Z,47.15
2022-08-21T09:12:21.773Z,47.08
2022-08-21T09:14:53.095Z,46.82
2022-08-21T09:17:45.526Z,46.94
2022-08-21T09:20:56.627Z,46.59
2022-08-21T09:23:41.224Z,46.69
2022-08-21T09:26:26.371Z,46.82
2022-08-21T09:28:56.416Z,46.39
2022-08-21T09:31:29.884Z,46.40
2022-08-21T09:34:04.587Z,46.55
2022-08-21T09:36:46.109Z,46.09
2022-08-21T09:39:14.812Z,46.18
2022-08-21T09:41:41.699Z,46.15
2022-08-21T09:44:09.525Z,46.03
2022-08-21T09:46:37.381Z,46.22
2022-08-21T09:49:06.007Z,46.04
2022-08-21T09:51:37.983Z,46.36
2022-08-21T09:54:04.516Z,46.02
2022-08-21T09:56:53.085Z,45.69
2022-08-21T09:59:36.919Z,46.08
2022-08-21T10:02:28.667Z,45.88
2022-08-21T10:05:01.819Z,45.76
2022-08-21T10:07:31.652Z,45.87
2022-08-21T10:10:02.360Z,46.11
2022-08-21T10:12:55.382Z,46.05
2022-08-21T10:15:41.299Z,46.00
2022-08-21T10:18:31.028Z,45.97
2022-08-21T10:21:03.223Z,45.84
2022-08-21T10:23:41.512Z,45.49
2022-08-21T10:26:14.649Z,45.36
2022-08-21T10:28:41.123Z,45.27
2022-08-21T10:31:19.960Z,44.02
2022-08-21T10:34:12.793Z,44.94
2022-08-21T10:37:10.020Z,44.72
2022-08-21T10:40:02.519Z,44.86
2022-08-21T10:42:34.720Z,44.61
2022-08-21T10:45:29.232Z,44.84
2022-08-21T10:47:58.902Z,44.63
2022-08-21T10:50:32.581Z,44.61
2022-08-21T10:53:18.128Z,44.77
2022-08-21T10:55:55.664Z,43.96
2022-08-21T10:58:49.462Z,44.21
2022-08-21T11:01:50.046Z,44.15
2022-08-21T11:04:48.948Z,44.18
2022-08-21T11:07:50.557Z,44.05
2022-08-21T11:10:55.199Z,43.80
2022-08-21T11:13:43.341Z,44.19
2022-08-21T11:16:41.011Z,44.32
2022-08-21T11:19:18.178Z,44.36
2022-08-21T11:21:50.056Z,44.35
2022-08-21T11:24:31.274Z,44.17
2022-08-21T11:27:07.524Z,44.10
2022-08-21T11:29:40.019Z,44.33
2022-08-21T11:32:12.269Z,44.03
2022-08-21T11:34:58.488Z,43.44
2022-08-21T11:37:46.386Z,43.66
2022-08-21T11:40:43.836Z,43.95
2022-08-21T11:43:43.734Z,43.47
2022-08-21T11:46:17.352Z,43.85
2022-08-21T11:48:59.840Z,43.69
2022-08-21T11:51:37.289Z,43.11
2022-08-21T11:54:14.434Z,43.02
2022-08-21T11:56:52.310Z,43.17
2022-08-21T11:59:30.752Z,43.37
2022-08-21T12:01:57.534Z,43.61
2022-08-21T12:04:28.031Z,42.94
2022-08-21T12:06:55.850Z,42.47
2022-08-21T12:09:25.417Z,43.12
2022-08-21T12:12:07.293Z,42.80
2022-08-21T12:15:04.693Z,42.73
2022-08-21T12:17:39.666Z,42.87
2022-08-21T12:20:38.986Z,42.95
2022-08-21T12:23:19.800Z,43.12
2022-08-21T12:26:24.971Z,42.78
2022-08-21T12:28:51.595Z,42.82
2022-08-21T12:31:27.767Z,42.89
2022-08-21T12:34:03.660Z,42.90
2022-08-21T12:36:44.027Z,42.72
2022-08-21T12:39:15.742Z,42.57
2022-08-21T12:41:49.473Z,42.47
2022-08-21T12:44:19.030Z,42.57
2022-08-21T12:46:56.981Z,42.72
2022-08-21T12:49:36.535Z,42.67
2022-08-21T12:52:03.033Z,42.63
2022-08-21T12:54:32.509Z,42.56
2022-08-21T12:57:04.902Z,42.33
2022-08-21T12:59:32.740Z,42.46
2022-08-21T13:02:01.270Z,42.33
2022-08-21T13:04:39.851Z,42.46
2022-08-21T13:07:13.164Z,42.27
2022-08-21T13:09:49.530Z,42.27
2022-08-21T13:12:17.685Z,42.22
2022-08-21T13:14:47.631Z,42.18
2022-08-21T13:17:23.324Z,42.33
2022-08-21T13:20:24.985Z,42.48
2022-08-21T13:22:51.630Z,41.96
2022-08-21T13:25:20.793Z,42.39
2022-08-21T13:28:00.445Z,41.98
2022-08-21T13:30:27.129Z,42.06
2022-08-21T13:32:59.679Z,42.21
2022-08-21T13:35:37.070Z,41.95
2022-08-21T13:38:04.999Z,41.87
2022-08-21T13:40:59.447Z,41.77
2022-08-21T13:43:33.652Z,42.13
2022-08-21T13:46:01.505Z,41.87
2022-08-21T13:48:31.417Z,41.64
2022-08-21T13:50:59.040Z,41.63
2022-08-21T13:53:30.390Z,41.66
2022-08-21T13:56:00.762Z,41.88
2022-08-21T13:58:45.876Z,41.95
2022-08-21T14:01:22.507Z,41.63
2022-08-21T14:03:50.657Z,41.64
2022-08-21T14:06:23.223Z,41.86
2022-08-21T14:08:55.310Z,42.14
2022-08-21T14:11:22.951Z,41.98
2022-08-21T14:14:00.376Z,41.90
2022-08-21T14:16:29.498Z,41.85
2022-08-21T14:19:03.984Z,42.10
2022-08-21T14:21:48.701Z,42.04
2022-08-21T14:24:30.154Z,42.03
2022-08-21T14:26:57.521Z,41.88
2022-08-21T14:29:27.133Z,42.32
2022-08-21T14:32:00.575Z,42.42
2022-08-21T14:34:31.845Z,42.36
2022-08-21T14:37:02.019Z,42.63
2022-08-21T14:39:28.580Z,42.85
2022-08-21T14:41:55.730Z,42.78
2022-08-21T14:44:22.634Z,43.01
2022-08-21T14:46:55.682Z,43.53
2022-08-21T14:49:28.453Z,43.45
2022-08-21T14:51:58.729Z,43.57
2022-08-21T14:54:31.555Z,43.63
2022-08-21T14:57:10.149Z,43.41
2022-08-21T14:59:37.531Z,43.71
2022-08-21T15:02:05.366Z,43.83
2022-08-21T15:04:33.223Z,43.68
2022-08-21T15:06:59.939Z,43.99
2022-08-21T15:09:26.605Z,44.07
2022-08-21T15:11:58.393Z,43.80
2022-08-21T15:14:28.948Z,43.56
2022-08-21T15:16:55.529Z,43.38
2022-08-21T15:19:22.532Z,43.54
2022-08-21T15:21:49.459Z,43.55
2022-08-21T15:24:16.555Z,43.43
2022-08-21T15:26:43.974Z,43.52
2022-08-21T15:29:10.917Z,43.41
2022-08-21T15:31:51.672Z,43.57
2022-08-21T15:34:18.514Z,43.60
2022-08-21T15:36:45.097Z,43.38
2022-08-21T15:39:11.681Z,43.15
2022-08-21T15:41:38.277Z,43.31
2022-08-21T15:44:05.077Z,42.97
2022-08-21T15:46:32.217Z,42.89
2022-08-21T15:49:00.007Z,42.97
2022-08-21T15:51:26.682Z,43.14
2022-08-21T15:53:53.270Z,43.11
2022-08-21T15:56:28.865Z,42.69
2022-08-21T15:59:01.412Z,42.95
2022-08-21T16:01:28.880Z,42.82
2022-08-21T16:04:03.530Z,42.73
2022-08-21T16:06:37.942Z,42.66
2022-08-21T16:09:17.024Z,42.74
2022-08-21T16:11:44.517Z,42.69
2022-08-21T16:14:15.772Z,42.65
2022-08-21T16:16:43.034Z,42.85
2022-08-21T16:19:10.913Z,42.71
2022-08-21T16:21:37.834Z,42.92
2022-08-21T16:24:04.693Z,42.53
2022-08-21T16:26:31.516Z,42.69
2022-08-21T16:29:01.520Z,42.59
2022-08-21T16:31:28.254Z,42.74
2022-08-21T16:33:57.274Z,42.55
2022-08-21T16:36:26.385Z,42.68
2022-08-21T16:38:56.862Z,43.03
2022-08-21T16:41:25.730Z,42.82
2022-08-21T16:43:52.762Z,42.94
2022-08-21T16:46:20.784Z,42.82
2022-08-21T16:48:47.343Z,42.75
2022-08-21T16:51:15.300Z,42.71
2022-08-21T16:53:42.918Z,43.10
2022-08-21T16:56:10.606Z,43.03
2022-08-21T16:58:39.212Z,42.88
2022-08-21T17:01:07.952Z,43.06
2022-08-21T17:03:40.698Z,42.74
2022-08-21T17:06:08.961Z,42.92
2022-08-21T17:08:36.149Z,42.67
2022-08-21T17:11:03.743Z,42.77
2022-08-21T17:13:30.372Z,42.85
2022-08-21T17:15:57.005Z,43.00
2022-08-21T17:18:24.867Z,43.03
2022-08-21T17:20:51.795Z,42.92
2022-08-21T17:23:19.683Z,42.94
2022-08-21T17:25:48.815Z,43.00
2022-08-21T17:28:25.752Z,42.69
2022-08-21T17:30:58.278Z,42.71
2022-08-21T17:33:26.371Z,42.70
2022-08-21T17:35:53.822Z,42.73
2022-08-21T17:38:20.708Z,42.80
2022-08-21T17:40:48.048Z,42.70
2022-08-21T17:43:15.819Z,42.62
2022-08-21T17:45:43.876Z,42.85
2022-08-21T17:48:11.261Z,42.77
2022-08-21T17:50:39.165Z,42.87
2022-08-21T17:53:05.893Z,42.87
2022-08-21T17:55:33.716Z,42.85
2022-08-21T17:58:02.214Z,42.72
2022-08-21T18:00:29.766Z,42.74
2022-08-21T18:03:06.402Z,42.86
2022-08-21T18:05:33.030Z,42.86
2022-08-21T18:07:59.596Z,42.73
2022-08-21T18:10:26.257Z,42.76
2022-08-21T18:12:53.224Z,42.74
2022-08-21T18:15:20.459Z,42.67
2022-08-21T18:17:51.417Z,42.60
2022-08-21T18:20:20.789Z,42.71
2022-08-21T18:22:47.496Z,42.78
2022-08-21T18:25:14.159Z,42.59
2022-08-21T18:27:43.294Z,42.70
2022-08-21T18:30:10.928Z,42.29
2022-08-21T18:32:37.540Z,42.25
2022-08-21T18:35:06.475Z,42.78
2022-08-21T18:37:33.124Z,42.77
2022-08-21T18:40:00.459Z,42.84
2022-08-21T18:42:37.000Z,42.59
2022-08-21T18:45:07.231Z,42.56
2022-08-21T18:47:42.863Z,43.02
2022-08-21T18:50:11.572Z,43.00
2022-08-21T18:52:41.768Z,43.13
2022-08-21T18:55:20.260Z,42.94
2022-08-21T18:57:47.384Z,43.12
2022-08-21T19:00:24.300Z,43.04
2022-08-21T19:02:51.865Z,43.07
2022-08-21T19:05:19.118Z,43.16
2022-08-21T19:07:46.858Z,43.33
2022-08-21T19:13:01.649Z,43.06
2022-08-21T19:15:29.756Z,43.29
2022-08-21T19:17:57.216Z,43.42
2022-08-21T19:20:36.605Z,43.20
2022-08-21T19:23:07.391Z,43.39
2022-08-21T19:25:34.677Z,43.25
2022-08-21T19:28:11.078Z,43.29
2022-08-21T19:33:50.754Z,43.35
2022-08-21T19:36:17.715Z,43.54
2022-08-21T19:38:45.624Z,43.07
2022-08-21T19:41:15.053Z,43.41
2022-08-21T19:43:44.615Z,43.40
2022-08-21T19:46:12.927Z,43.49
2022-08-21T19:48:40.637Z,43.44
2022-08-21T19:51:07.626Z,43.31
2022-08-21T19:53:35.000Z,43.56
2022-08-21T19:56:01.877Z,43.45
2022-08-21T19:58:37.093Z,43.49
2022-08-21T20:01:11.496Z,43.55
2022-08-21T20:03:45.165Z,43.63
2022-08-21T20:06:20.946Z,43.54
2022-08-21T20:08:50.972Z,43.56
2022-08-21T20:11:23.005Z,43.43
2022-08-21T20:13:49.651Z,43.33
2022-08-21T20:16:17.125Z,42.99
2022-08-21T20:18:43.710Z,43.37
2022-08-21T20:21:13.189Z,43.09
2022-08-21T20:23:48.247Z,43.60
2022-08-21T20:26:16.396Z,43.37
2022-08-21T20:28:43.260Z,43.48
2022-08-21T20:31:10.496Z,43.39
2022-08-21T20:33:37.534Z,43.58
2022-08-21T20:36:04.262Z,43.61
2022-08-21T20:38:31.696Z,43.79
2022-08-21T20:40:58.363Z,43.45
2022-08-21T20:43:26.553Z,43.53
2022-08-21T20:45:55.289Z,43.67
2022-08-21T20:48:30.496Z,43.49
2022-08-21T20:51:08.278Z,43.64
2022-08-21T20:54:03.316Z,43.74
2022-08-21T20:56:35.852Z,43.78
2022-08-21T20:59:10.673Z,43.85
2022-08-21T21:01:37.575Z,43.78
2022-08-21T21:04:19.546Z,43.77
2022-08-21T21:06:49.876Z,43.56
2022-08-21T21:09:40.181Z,43.55
2022-08-21T21:12:12.618Z,43.91
2022-08-21T21:14:45.585Z,43.47
2022-08-21T21:17:26.825Z,43.58
2022-08-21T21:20:04.833Z,43.68
2022-08-21T21:22:36.979Z,43.76
2022-08-21T21:25:18.119Z,43.80
2022-08-21T21:27:49.955Z,43.85
2022-08-21T21:30:20.968Z,43.65
2022-08-21T21:32:47.745Z,43.88
2022-08-21T21:35:15.959Z,43.93
2022-08-21T21:37:48.559Z,43.88
2022-08-21T21:40:37.262Z,43.79
2022-08-21T21:43:21.137Z,43.94
2022-08-21T21:45:59.707Z,43.73
2022-08-21T21:49:06.708Z,43.77
2022-08-21T21:52:00.050Z,43.75
2022-08-21T21:54:49.106Z,43.76
2022-08-21T21:57:36.609Z,44.13
2022-08-21T22:00:21.352Z,43.83
2022-08-21T22:03:23.999Z,43.95
2022-08-21T22:06:01.322Z,44.06
2022-08-21T22:09:00.731Z,44.05
2022-08-21T22:11:33.702Z,43.87
2022-08-21T22:14:09.867Z,44.36
2022-08-21T22:16:37.815Z,44.08
2022-08-21T22:19:14.749Z,44.13
2022-08-21T22:21:46.067Z,44.19
2022-08-21T22:24:18.737Z,44.11
2022-08-21T22:26:50.935Z,44.08
2022-08-21T22:29:20.794Z,43.92
2022-08-21T22:32:10.523Z,43.90
2022-08-21T22:34:38.545Z,44.15
2022-08-21T22:37:10.483Z,44.20
2022-08-21T22:39:45.528Z,44.35
2022-08-21T22:42:20.478Z,44.22
2022-08-21T22:44:52.972Z,44.16
2022-08-21T22:47:33.683Z,44.35
2022-08-21T22:50:04.822Z,44.36
2022-08-21T22:52:36.947Z,44.35
2022-08-21T22:55:24.116Z,44.27
2022-08-21T22:58:11.789Z,44.07
2022-08-21T23:00:44.170Z,44.26
2022-08-21T23:03:23.193Z,44.19
2022-08-21T23:05:50.903Z,44.52
2022-08-21T23:11:16.012Z,44.57
2022-08-21T23:13:49.085Z,44.42
2022-08-21T23:16:31.569Z,44.21
2022-08-21T23:19:24.134Z,44.24
2022-08-21T23:21:59.410Z,44.40
2022-08-21T23:24:33.184Z,44.38
2022-08-21T23:27:35.794Z,44.29
2022-08-21T23:30:15.407Z,44.78
2022-08-21T23:33:13.563Z,44.65
2022-08-21T23:36:35.982Z,44.66
2022-08-21T23:39:07.168Z,44.56
2022-08-21T23:41:43.345Z,44.88
2022-08-21T23:44:27.668Z,44.94
2022-08-21T23:46:55.741Z,44.49
2022-08-21T23:49:43.997Z,44.63
2022-08-21T23:52:25.987Z,44.82
2022-08-21T23:55:16.555Z,44.77
2022-08-21T23:57:52.897Z,44.96
